Island Explorer — WDG7285 — position and weather

sailwx.info

Track history (hours):
 
Tides and Currents Weather Stations Pressure Air Temp Water Temp Dewpoint Dewpoint Depression Visibility Wind Speed Wind Dir Waves Ship Positions

Island Explorer

Owner: Island Packers, Inc., Ventura, CA. More information available from US FCC via Universal Licensing System and Coast Guard Vessel Documentation Center.

Last reported at 2018-Jul-23 11:30 UTC. Time now 2018-Jul-23 11:55 UTC.
Position N 34°15' W 119°16'.

Length 22 m.

Type: Passenger vessel. MMSI: 367565750.

Date/timePositionNaut miles runAvg speedWind from/ knotsBaromVisibWave heightAir tempDewpointWater temp
2018-Jul-23 11:30N 34°15' W 119°16'0 0.0
2018-Jul-23 10:58N 34°15' W 119°16'0 0.0
2018-Jul-23 10:30N 34°15' W 119°16'0 0.0
2018-Jul-23 10:00N 34°15' W 119°16'0 0.0
2018-Jul-23 09:30N 34°15' W 119°16'0 0.0
2018-Jul-23 09:00N 34°15' W 119°16'0 0.0
2018-Jul-23 08:30N 34°15' W 119°16'0 0.0
2018-Jul-23 08:00N 34°15' W 119°16'0 0.0
2018-Jul-23 07:30N 34°15' W 119°16'0 0.0
2018-Jul-23 07:01N 34°15' W 119°16'0 0.0
2018-Jul-23 06:30N 34°15' W 119°16'0 0.0
2018-Jul-23 06:00N 34°15' W 119°16'0 0.0
2018-Jul-23 05:30N 34°15' W 119°16'0 0.0
2018-Jul-23 05:00N 34°15' W 119°16'0 0.0
2018-Jul-23 04:31N 34°15' W 119°16'0 0.0
2018-Jul-23 03:57N 34°15' W 119°16'0 0.0
2018-Jul-23 03:31N 34°15' W 119°16'0 0.0
2018-Jul-23 03:00N 34°15' W 119°16'0 0.0
2018-Jul-23 02:31N 34°15' W 119°16'0 0.0
2018-Jul-23 02:00N 34°15' W 119°16'0 0.0
2018-Jul-23 01:30N 34°15' W 119°16'0 0.0
2018-Jul-23 01:01N 34°15' W 119°16'4 8.0
2018-Jul-23 00:30N 34°12' W 119°20'816.0
2018-Jul-23 00:00N 34°07' W 119°27'712.9
2018-Jul-22 23:30N 34°03' W 119°33'0 0.2
2018-Jul-22 23:00N 34°03' W 119°33'611.9
2018-Jul-22 22:31N 34°02' W 119°40'1 2.2
2018-Jul-22 22:00N 34°01' W 119°41'0 0.0
2018-Jul-22 21:30N 34°01' W 119°41'0 0.1
2018-Jul-22 21:00N 34°01' W 119°41'0 0.0
2018-Jul-22 20:28N 34°01' W 119°41'0 0.1
2018-Jul-22 20:00N 34°01' W 119°41'0 0.0
2018-Jul-22 19:28N 34°01' W 119°41'0 0.1
2018-Jul-22 19:00N 34°01' W 119°41'0 0.1
2018-Jul-22 18:30N 34°01' W 119°41'4 8.1
2018-Jul-22 18:00N 34°03' W 119°37'3 5.4
2018-Jul-22 17:29N 34°03' W 119°33'713.6
2018-Jul-22 17:00N 34°07' W 119°27'916.7
2018-Jul-22 16:29N 34°13' W 119°19'3 6.5
2018-Jul-22 15:59N 34°15' W 119°16'0 0.0
2018-Jul-22 14:57N 34°15' W 119°16'0 0.0
2018-Jul-22 14:26N 34°15' W 119°16'0 0.0
2018-Jul-22 13:49N 34°15' W 119°16'0 0.0
2018-Jul-22 13:29N 34°15' W 119°16'0 0.0
2018-Jul-22 13:00N 34°15' W 119°16'0 0.0
2018-Jul-22 12:28N 34°15' W 119°16'0 0.0
2018-Jul-22 11:56N 34°15' W 119°16'0 0.0
2018-Jul-22 11:29N 34°15' W 119°16'0 0.0
2018-Jul-22 11:00N 34°15' W 119°16'0 0.0
2018-Jul-22 10:30N 34°15' W 119°16'0 0.0
2018-Jul-22 09:59N 34°15' W 119°16'0 0.0
2018-Jul-22 09:30N 34°15' W 119°16'0 0.0
2018-Jul-22 08:42N 34°15' W 119°16'0 0.0
2018-Jul-22 08:26N 34°15' W 119°16'0 0.0
2018-Jul-22 07:58N 34°15' W 119°16'0 0.0
2018-Jul-22 07:30N 34°15' W 119°16'0 0.0
2018-Jul-22 06:59N 34°15' W 119°16'0 0.0
2018-Jul-22 06:30N 34°15' W 119°16'0 0.0
2018-Jul-22 05:59N 34°15' W 119°16'0 0.0
2018-Jul-22 05:30N 34°15' W 119°16'0 0.0
2018-Jul-22 05:00N 34°15' W 119°16'0 0.0
2018-Jul-22 04:30N 34°15' W 119°16'0 0.0
2018-Jul-22 04:00N 34°15' W 119°16'0 0.7
2018-Jul-22 03:30N 34°15' W 119°16'0 0.2
2018-Jul-22 03:00N 34°15' W 119°16'1 1.2
2018-Jul-22 02:29N 34°15' W 119°16'0 0.1
2018-Jul-22 02:01N 34°15' W 119°16'0 0.4
2018-Jul-22 01:30N 34°15' W 119°16'0 0.0
2018-Jul-22 01:00N 34°15' W 119°16'0 0.0
2018-Jul-22 00:30N 34°15' W 119°16'0 0.0
2018-Jul-22 00:00N 34°15' W 119°16'0 0.0
2018-Jul-21 23:29N 34°15' W 119°16'0 0.0
2018-Jul-21 22:59N 34°15' W 119°16'510.8
2018-Jul-21 22:30N 34°11' W 119°20'713.0
2018-Jul-21 22:00N 34°04' W 119°19'4 8.6
2018-Jul-21 21:30N 34°01' W 119°22'611.3
2018-Jul-21 21:00N 33°57' W 119°28'3 6.2
2018-Jul-21 20:30N 33°59' W 119°30'815.2
2018-Jul-21 20:00N 34°06' W 119°35'0 0.9
2018-Jul-21 19:30N 34°06' W 119°35'1 2.2
2018-Jul-21 19:00N 34°05' W 119°34'4 8.1
2018-Jul-21 18:30N 34°05' W 119°29'816.0
2018-Jul-21 17:59N 34°11' W 119°21'612.8
2018-Jul-21 17:30N 34°15' W 119°16'0 0.6
2018-Jul-21 17:00N 34°15' W 119°16'0 0.0
2018-Jul-21 16:30N 34°15' W 119°16'0 0.0
2018-Jul-21 15:58N 34°15' W 119°16'0 0.0
2018-Jul-21 15:30N 34°15' W 119°16'0 0.0
2018-Jul-21 15:01N 34°15' W 119°16'0 0.0
2018-Jul-21 14:30N 34°15' W 119°16'0 0.0
2018-Jul-21 14:00N 34°15' W 119°16'0 0.0
2018-Jul-21 13:30N 34°15' W 119°16'0 0.0
2018-Jul-21 12:58N 34°15' W 119°16'0 0.0
2018-Jul-21 12:28N 34°15' W 119°16'0 0.0
2018-Jul-21 11:58N 34°15' W 119°16'0 0.0
2018-Jul-21 11:30N 34°15' W 119°16'0 0.0
2018-Jul-21 11:00N 34°15' W 119°16'0 0.0
2018-Jul-21 10:28N 34°15' W 119°16'0 0.0
2018-Jul-21 09:57N 34°15' W 119°16'0 0.0
2018-Jul-21 09:30N 34°15' W 119°16'0 0.0
2018-Jul-21 09:00N 34°15' W 119°16'0 0.0
2018-Jul-21 08:29N 34°15' W 119°16'0 0.0
2018-Jul-21 07:58N 34°15' W 119°16'0 0.0
2018-Jul-21 07:31N 34°15' W 119°16'0 0.0
2018-Jul-21 07:00N 34°15' W 119°16'0 0.0
2018-Jul-21 06:30N 34°15' W 119°16'0 0.0
2018-Jul-21 05:55N 34°15' W 119°16'0 0.0
2018-Jul-21 05:27N 34°15' W 119°16'0 0.0
2018-Jul-21 05:00N 34°15' W 119°16'0 0.0
2018-Jul-21 04:27N 34°15' W 119°16'0 0.0
2018-Jul-21 04:00N 34°15' W 119°16'0 0.0
2018-Jul-21 03:22N 34°15' W 119°16'0 0.0
2018-Jul-21 03:01N 34°15' W 119°16'0 0.0
2018-Jul-21 02:29N 34°15' W 119°16'0 0.0
2018-Jul-21 01:58N 34°15' W 119°16'0 0.0
2018-Jul-21 01:27N 34°15' W 119°16'0 0.3
2018-Jul-21 01:00N 34°15' W 119°16'815.1
2018-Jul-21 00:30N 34°10' W 119°23'714.2
2018-Jul-21 00:00N 34°06' W 119°30'4 8.0
2018-Jul-20 23:30N 34°03' W 119°33'0 0.0
2018-Jul-20 23:00N 34°03' W 119°33'0 0.2
2018-Jul-20 22:30N 34°03' W 119°33'0 0.1
2018-Jul-20 22:00N 34°03' W 119°33'4 8.4
2018-Jul-20 21:30N 34°02' W 119°38'2 5.0
2018-Jul-20 21:00N 34°01' W 119°41'0 0.0
2018-Jul-20 20:30N 34°01' W 119°41'0 0.1
2018-Jul-20 20:00N 34°01' W 119°41'0 0.0
2018-Jul-20 19:30N 34°01' W 119°41'0 0.1
2018-Jul-20 19:00N 34°01' W 119°41'0 0.2
2018-Jul-20 18:28N 34°01' W 119°41'613.2
2018-Jul-20 18:00N 34°03' W 119°34'1 1.5
2018-Jul-20 17:30N 34°03' W 119°33'610.7
2018-Jul-20 16:59N 34°07' W 119°28'917.8
2018-Jul-20 16:30N 34°12' W 119°20'4 7.3
2018-Jul-20 15:56N 34°15' W 119°16'0 0.0
2018-Jul-20 15:28N 34°15' W 119°16'0 0.1
2018-Jul-20 15:01N 34°15' W 119°16'0 0.0
2018-Jul-20 14:31N 34°15' W 119°16'0 0.0
2018-Jul-20 14:00N 34°15' W 119°16'0 0.0
2018-Jul-20 13:28N 34°15' W 119°16'0 0.0
2018-Jul-20 12:57N 34°15' W 119°16'0 0.0
2018-Jul-20 12:29N 34°15' W 119°16'0 0.0
2018-Jul-20 12:00N 34°15' W 119°16'0 0.0
2018-Jul-20 11:29N 34°15' W 119°16'0 0.0
2018-Jul-20 10:59N 34°15' W 119°16'0 0.0
2018-Jul-20 10:27N 34°15' W 119°16'0 0.0
2018-Jul-20 09:59N 34°15' W 119°16'0 0.0
2018-Jul-20 09:31N 34°15' W 119°16'0 0.0
2018-Jul-20 09:01N 34°15' W 119°16'0 0.0
2018-Jul-20 08:29N 34°15' W 119°16'0 0.0
2018-Jul-20 07:55N 34°15' W 119°16'0 0.0
2018-Jul-20 07:29N 34°15' W 119°16'0 0.0
2018-Jul-20 07:00N 34°15' W 119°16'0 0.0
2018-Jul-20 06:30N 34°15' W 119°16'0 0.0
2018-Jul-20 06:00N 34°15' W 119°16'0 0.0
2018-Jul-20 05:29N 34°15' W 119°16'0 0.0
2018-Jul-20 04:57N 34°15' W 119°16'0 0.0
2018-Jul-20 04:29N 34°15' W 119°16'0 0.0
2018-Jul-20 03:57N 34°15' W 119°16'0 0.0
2018-Jul-20 03:30N 34°15' W 119°16'0 0.0
2018-Jul-20 03:00N 34°15' W 119°16'0 0.0
2018-Jul-20 02:31N 34°15' W 119°16'0 0.0
2018-Jul-20 01:58N 34°15' W 119°16'0 0.0
2018-Jul-20 01:28N 34°15' W 119°16'0 0.0
2018-Jul-20 00:52N 34°15' W 119°16'0 0.0
2018-Jul-20 00:28N 34°15' W 119°16'0 0.4
2018-Jul-20 00:00N 34°14' W 119°16'1 1.0
2018-Jul-19 23:30N 34°15' W 119°16'918.9
2018-Jul-19 23:00N 34°15' W 119°28'5 9.3
2018-Jul-19 22:31N 34°15' W 119°33'510.0
2018-Jul-19 22:00N 34°14' W 119°39'815.6
2018-Jul-19 21:30N 34°09' W 119°46'613.0
2018-Jul-19 21:01N 34°04' W 119°52'712.9
2018-Jul-19 20:30N 34°06' W 119°44'511.0
2018-Jul-19 20:00N 34°05' W 119°37'713.3
2018-Jul-19 19:31N 34°07' W 119°30'2 3.3
2018-Jul-19 19:00N 34°06' W 119°31'1 1.3
2018-Jul-19 18:31N 34°06' W 119°32'16 5.6
2018-Jul-19 15:41N 34°15' W 119°16'0 0.0
2018-Jul-19 15:29N 34°15' W 119°16'0 0.0
2018-Jul-19 15:00N 34°15' W 119°16'0 0.0
2018-Jul-19 14:30N 34°15' W 119°16'0 0.0
2018-Jul-19 13:30N 34°15' W 119°16'0 0.0
2018-Jul-19 13:00N 34°15' W 119°16'0 0.0
2018-Jul-19 12:29N 34°15' W 119°16'0 0.0
2018-Jul-19 11:58N 34°15' W 119°16'0 0.0
2018-Jul-19 11:27N 34°15' W 119°16'0 0.0
2018-Jul-19 10:58N 34°15' W 119°16'0 0.0
2018-Jul-19 10:22N 34°15' W 119°16'0 0.0
2018-Jul-19 10:00N 34°15' W 119°16'0 0.0
2018-Jul-19 09:30N 34°15' W 119°16'0 0.0
2018-Jul-19 08:45N 34°15' W 119°16'0 0.0
2018-Jul-19 08:28N 34°15' W 119°16'0 0.0
2018-Jul-19 08:00N 34°15' W 119°16'0 0.0
2018-Jul-19 07:30N 34°15' W 119°16'0 0.0
2018-Jul-19 07:00N 34°15' W 119°16'0 0.0
2018-Jul-19 06:28N 34°15' W 119°16'0 0.0
2018-Jul-19 06:00N 34°15' W 119°16'0 0.0
2018-Jul-19 05:30N 34°15' W 119°16'0 0.0
2018-Jul-19 05:00N 34°15' W 119°16'0 0.0
2018-Jul-19 04:22N 34°15' W 119°16'0 0.0
2018-Jul-19 04:00N 34°15' W 119°16'0 0.0
2018-Jul-19 03:28N 34°15' W 119°16'0 0.0
2018-Jul-19 02:54N 34°15' W 119°16'0 0.0
2018-Jul-19 02:26N 34°15' W 119°16'0 0.0
2018-Jul-19 01:58N 34°15' W 119°16'0 0.0
2018-Jul-19 01:27N 34°15' W 119°16'4 9.7
2018-Jul-19 01:00N 34°12' W 119°20'1020.2
2018-Jul-19 00:29N 34°07' W 119°30'4 8.6
2018-Jul-19 00:00N 34°03' W 119°33'0 0.1
2018-Jul-18 23:30N 34°03' W 119°33'612.1
2018-Jul-18 23:00N 34°02' W 119°40'1 1.8
2018-Jul-18 22:31N 34°01' W 119°41'0 0.0
2018-Jul-18 22:01N 34°01' W 119°41'0 0.0
2018-Jul-18 21:30N 34°01' W 119°41'0 0.0
2018-Jul-18 21:00N 34°01' W 119°41'0 0.0
2018-Jul-18 20:30N 34°01' W 119°41'0 0.0
2018-Jul-18 20:00N 34°01' W 119°41'2 3.2
2018-Jul-18 19:30N 34°03' W 119°42'2 3.9
2018-Jul-18 19:00N 34°02' W 119°40'611.5
2018-Jul-18 18:30N 34°03' W 119°33'510.7
2018-Jul-18 18:00N 34°07' W 119°29'918.0
2018-Jul-18 17:30N 34°12' W 119°21'4 8.8
2018-Jul-18 17:00N 34°15' W 119°16'0 0.0
2018-Jul-18 16:30N 34°15' W 119°16'0 0.0
2018-Jul-18 15:59N 34°15' W 119°16'0 0.0
2018-Jul-18 15:31N 34°15' W 119°16'0 0.0
2018-Jul-18 14:58N 34°15' W 119°16'0 0.0
2018-Jul-18 14:31N 34°15' W 119°16'0 0.0
2018-Jul-18 13:30N 34°15' W 119°16'0 0.0
2018-Jul-18 13:00N 34°15' W 119°16'0 0.0
2018-Jul-18 12:30N 34°15' W 119°16'0 0.0
2018-Jul-18 12:00N 34°15' W 119°16'0 0.0
2018-Jul-18 11:30N 34°15' W 119°16'0 0.0
2018-Jul-18 10:30N 34°15' W 119°16'0 0.0
2018-Jul-18 09:59N 34°15' W 119°16'0 0.0
2018-Jul-18 09:30N 34°15' W 119°16'0 0.0
2018-Jul-18 09:01N 34°15' W 119°16'0 0.0
2018-Jul-18 08:30N 34°15' W 119°16'0 0.0
2018-Jul-18 08:00N 34°15' W 119°16'0 0.0
2018-Jul-18 07:28N 34°15' W 119°16'0 0.0
2018-Jul-18 06:59N 34°15' W 119°16'0 0.0
2018-Jul-18 06:29N 34°15' W 119°16'0 0.0
2018-Jul-18 06:00N 34°15' W 119°16'0 0.0
2018-Jul-18 05:30N 34°15' W 119°16'0 0.0
2018-Jul-18 05:00N 34°15' W 119°16'0 0.0
2018-Jul-18 04:30N 34°15' W 119°16'0 0.0
2018-Jul-18 04:00N 34°15' W 119°16'0 0.0
2018-Jul-18 03:30N 34°15' W 119°16'0 0.0
2018-Jul-18 03:01N 34°15' W 119°16'0 0.0
2018-Jul-18 02:30N 34°15' W 119°16'0 0.0
2018-Jul-18 01:59N 34°15' W 119°16'0 0.0
2018-Jul-18 01:30N 34°15' W 119°16'0 0.0
2018-Jul-18 01:00N 34°15' W 119°16'4 9.0
2018-Jul-18 00:30N 34°12' W 119°20'917.5
2018-Jul-18 00:00N 34°07' W 119°29'510.9
2018-Jul-17 23:30N 34°03' W 119°33'0 0.2
2018-Jul-17 23:00N 34°03' W 119°33'612.2
2018-Jul-17 22:31N 34°02' W 119°40'1 1.5
2018-Jul-17 22:01N 34°01' W 119°41'0 0.0
2018-Jul-17 21:31N 34°01' W 119°41'0 0.0
2018-Jul-17 21:00N 34°01' W 119°41'0 0.0
2018-Jul-17 20:30N 34°01' W 119°41'0 0.0
2018-Jul-17 20:00N 34°01' W 119°41'0 0.0
2018-Jul-17 19:30N 34°01' W 119°41'0 0.1
2018-Jul-17 19:00N 34°01' W 119°41'0 0.1
2018-Jul-17 18:30N 34°01' W 119°41'3 5.1
2018-Jul-17 18:00N 34°02' W 119°38'4 7.4
2018-Jul-17 17:27N 34°03' W 119°33'511.7
2018-Jul-17 17:00N 34°06' W 119°28'1018.6
2018-Jul-17 16:28N 34°13' W 119°19'3 7.3
2018-Jul-17 16:00N 34°15' W 119°16'0 0.0
2018-Jul-17 15:28N 34°15' W 119°16'0 0.5
2018-Jul-17 15:00N 34°14' W 119°16'0 0.4
2018-Jul-17 14:29N 34°15' W 119°16'0 0.0
2018-Jul-17 14:00N 34°15' W 119°16'0 0.0
2018-Jul-17 13:30N 34°15' W 119°16'0 0.0
2018-Jul-17 13:00N 34°15' W 119°16'0 0.0
2018-Jul-17 12:30N 34°15' W 119°16'0 0.0
2018-Jul-17 12:00N 34°15' W 119°16'0 0.0
2018-Jul-17 11:30N 34°15' W 119°16'0 0.0
2018-Jul-17 10:59N 34°15' W 119°16'0 0.0
2018-Jul-17 10:30N 34°15' W 119°16'0 0.0
2018-Jul-17 10:00N 34°15' W 119°16'0 0.0
2018-Jul-17 09:30N 34°15' W 119°16'0 0.0
2018-Jul-17 08:58N 34°15' W 119°16'0 0.0
2018-Jul-17 08:30N 34°15' W 119°16'0 0.0
2018-Jul-17 08:00N 34°15' W 119°16'0 0.0
2018-Jul-17 07:30N 34°15' W 119°16'0 0.0
2018-Jul-17 07:00N 34°15' W 119°16'0 0.0
2018-Jul-17 06:30N 34°15' W 119°16'0 0.0
2018-Jul-17 06:00N 34°15' W 119°16'0 0.0
2018-Jul-17 05:29N 34°15' W 119°16'0 0.0
2018-Jul-17 05:00N 34°15' W 119°16'0 0.0
2018-Jul-17 04:30N 34°15' W 119°16'0 0.0
2018-Jul-17 04:00N 34°15' W 119°16'0 0.0
2018-Jul-17 03:30N 34°15' W 119°16'0 0.0
2018-Jul-17 02:59N 34°15' W 119°16'0 0.0
2018-Jul-17 02:30N 34°15' W 119°16'0 0.0
2018-Jul-17 02:00N 34°15' W 119°16'0 0.0
2018-Jul-17 01:30N 34°15' W 119°16'0 0.2
2018-Jul-17 01:00N 34°15' W 119°16'815.0
2018-Jul-17 00:29N 34°10' W 119°24'1110.9
2018-Jul-16 23:30N 34°03' W 119°33'0 0.1
2018-Jul-16 23:00N 34°03' W 119°33'0 0.0
2018-Jul-16 22:31N 34°03' W 119°33'0 0.0
2018-Jul-16 22:00N 34°03' W 119°33'0 0.0
2018-Jul-16 21:30N 34°03' W 119°33'0 0.0
2018-Jul-16 21:00N 34°03' W 119°33'0 0.0
2018-Jul-16 20:30N 34°03' W 119°33'0 0.0
2018-Jul-16 19:59N 34°03' W 119°33'1 3.1
2018-Jul-16 19:30N 34°04' W 119°32'4 8.5
2018-Jul-16 19:00N 34°03' W 119°37'4 7.4
2018-Jul-16 18:30N 34°01' W 119°41'713.6
2018-Jul-16 18:00N 34°03' W 119°33'2 3.3
2018-Jul-16 17:29N 34°04' W 119°32'714.6
2018-Jul-16 17:00N 34°08' W 119°25'917.3
2018-Jul-16 16:30N 34°14' W 119°17'1 2.2
2018-Jul-16 16:00N 34°15' W 119°16'0 0.0
2018-Jul-16 15:29N 34°15' W 119°16'0 0.0
2018-Jul-16 15:00N 34°15' W 119°16'0 0.0
2018-Jul-16 14:30N 34°15' W 119°16'0 0.0
2018-Jul-16 14:00N 34°15' W 119°16'0 0.0
2018-Jul-16 13:30N 34°15' W 119°16'0 0.0
2018-Jul-16 13:00N 34°15' W 119°16'0 0.0
2018-Jul-16 12:30N 34°15' W 119°16'0 0.0
2018-Jul-16 12:00N 34°15' W 119°16'0 0.0
2018-Jul-16 11:30N 34°15' W 119°16'0 0.0
2018-Jul-16 11:00N 34°15' W 119°16'0 0.0
2018-Jul-16 10:28N 34°15' W 119°16'0 0.0
2018-Jul-16 10:00N 34°15' W 119°16'0 0.0
2018-Jul-16 09:29N 34°15' W 119°16'0 0.0
2018-Jul-16 08:59N 34°15' W 119°16'0 0.0
2018-Jul-16 08:31N 34°15' W 119°16'0 0.0
2018-Jul-16 08:00N 34°15' W 119°16'0 0.0
2018-Jul-16 07:30N 34°15' W 119°16'0 0.0
2018-Jul-16 07:00N 34°15' W 119°16'0 0.0
2018-Jul-16 06:29N 34°15' W 119°16'0 0.0
2018-Jul-16 06:00N 34°15' W 119°16'0 0.0
2018-Jul-16 05:29N 34°15' W 119°16'0 0.0
2018-Jul-16 04:57N 34°15' W 119°16'0 0.0
2018-Jul-16 04:27N 34°15' W 119°16'0 0.0
2018-Jul-16 04:00N 34°15' W 119°16'0 0.0
2018-Jul-16 03:30N 34°15' W 119°16'0 0.0
2018-Jul-16 03:00N 34°15' W 119°16'0 0.0
2018-Jul-16 02:30N 34°15' W 119°16'0 0.0
2018-Jul-16 01:59N 34°15' W 119°16'0 0.0
2018-Jul-16 01:30N 34°15' W 119°16'0 0.0
2018-Jul-16 01:00N 34°15' W 119°16'611.3
2018-Jul-16 00:31N 34°12' W 119°21'1017.7
2018-Jul-15 23:58N 34°05' W 119°30'3 7.4
2018-Jul-15 23:30N 34°03' W 119°33'1 1.2
2018-Jul-15 23:00N 34°03' W 119°33'611.6
2018-Jul-15 22:30N 34°02' W 119°39'2 3.5
2018-Jul-15 22:00N 34°01' W 119°41'0 0.0
2018-Jul-15 21:30N 34°01' W 119°41'0 0.1
2018-Jul-15 21:00N 34°01' W 119°41'0 0.0
2018-Jul-15 20:30N 34°01' W 119°41'0 0.8
2018-Jul-15 20:00N 34°02' W 119°41'1 2.3
2018-Jul-15 19:30N 34°02' W 119°40'4 6.9
2018-Jul-15 19:00N 34°03' W 119°36'4 8.1
2018-Jul-15 18:30N 34°02' W 119°40'611.5
2018-Jul-15 17:59N 34°03' W 119°33'5 9.6
2018-Jul-15 17:30N 34°06' W 119°29'3 5.2
2018-Jul-15 17:00N 34°07' W 119°26'713.3
2018-Jul-15 16:30N 34°12' W 119°21'510.0
2018-Jul-15 16:00N 34°15' W 119°16'0 0.0
2018-Jul-15 15:30N 34°15' W 119°16'0 0.0
2018-Jul-15 15:01N 34°15' W 119°16'0 0.0
2018-Jul-15 14:30N 34°15' W 119°16'0 0.0
2018-Jul-15 14:00N 34°15' W 119°16'0 0.0
2018-Jul-15 13:31N 34°15' W 119°16'0 0.0
2018-Jul-15 13:00N 34°15' W 119°16'0 0.0
2018-Jul-15 12:30N 34°15' W 119°16'0 0.0
2018-Jul-15 11:55N 34°15' W 119°16'0 0.0
2018-Jul-15 11:30N 34°15' W 119°16'0 0.0
2018-Jul-15 11:01N 34°15' W 119°16'0 0.0
2018-Jul-15 10:28N 34°15' W 119°16'0 0.0
2018-Jul-15 10:00N 34°15' W 119°16'0 0.0
2018-Jul-15 09:30N 34°15' W 119°16'0 0.0
2018-Jul-15 08:59N 34°15' W 119°16'0 0.0
2018-Jul-15 08:31N 34°15' W 119°16'0 0.0
2018-Jul-15 08:01N 34°15' W 119°16'0 0.0
2018-Jul-15 07:30N 34°15' W 119°16'0 0.0
2018-Jul-15 06:59N 34°15' W 119°16'0 0.0
2018-Jul-15 06:28N 34°15' W 119°16'0 0.0
2018-Jul-15 06:00N 34°15' W 119°16'0 0.0
2018-Jul-15 05:30N 34°15' W 119°16'0 0.0
2018-Jul-15 05:00N 34°15' W 119°16'0 0.0
2018-Jul-15 04:30N 34°15' W 119°16'0 0.8
2018-Jul-15 03:59N 34°15' W 119°16'0 0.8
2018-Jul-15 03:30N 34°15' W 119°16'1 1.7
2018-Jul-15 03:00N 34°16' W 119°16'1 1.2
2018-Jul-15 02:30N 34°15' W 119°16'0 0.8
2018-Jul-15 02:01N 34°15' W 119°16'0 0.0
2018-Jul-15 01:31N 34°15' W 119°16'0 0.0
2018-Jul-15 01:00N 34°15' W 119°16'0 0.1
2018-Jul-15 00:29N 34°15' W 119°16'3 5.6
2018-Jul-15 00:00N 34°13' W 119°19'816.7
2018-Jul-14 23:30N 34°08' W 119°26'810.3
2018-Jul-14 22:46N 34°03' W 119°33'0 0.0
2018-Jul-14 22:21N 34°03' W 119°33'0 0.1
2018-Jul-14 22:01N 34°03' W 119°33'0 0.0
2018-Jul-14 21:30N 34°03' W 119°33'0 0.0
2018-Jul-14 21:00N 34°03' W 119°33'0 0.0
2018-Jul-14 20:30N 34°03' W 119°33'4 8.5
2018-Jul-14 20:00N 34°05' W 119°29'918.4
2018-Jul-14 19:30N 34°11' W 119°21'510.3
2018-Jul-14 19:00N 34°15' W 119°16'0 0.4
2018-Jul-14 18:30N 34°14' W 119°16'2 4.7
2018-Jul-14 18:00N 34°14' W 119°18'1020.5
2018-Jul-14 17:30N 34°08' W 119°28'612.0
2018-Jul-14 17:00N 34°03' W 119°33'0 0.0
2018-Jul-14 16:29N 34°03' W 119°33'714.9
2018-Jul-14 16:00N 34°07' W 119°26'917.7
2018-Jul-14 15:30N 34°13' W 119°18'3 5.3
2018-Jul-14 15:00N 34°15' W 119°16'0 0.0
2018-Jul-14 14:00N 34°15' W 119°16'0 0.0
2018-Jul-14 13:27N 34°15' W 119°16'0 0.0
2018-Jul-14 12:56N 34°15' W 119°16'0 0.0
2018-Jul-14 12:30N 34°15' W 119°16'0 0.0
2018-Jul-14 11:59N 34°15' W 119°16'0 0.0
2018-Jul-14 11:30N 34°15' W 119°16'0 0.0
2018-Jul-14 11:00N 34°15' W 119°16'0 0.0
2018-Jul-14 10:23N 34°15' W 119°16'0 0.0
2018-Jul-14 10:01N 34°15' W 119°16'0 0.0
2018-Jul-14 09:30N 34°15' W 119°16'0 0.0
2018-Jul-14 08:58N 34°15' W 119°16'0 0.0
2018-Jul-14 08:29N 34°15' W 119°16'0 0.0
2018-Jul-14 07:59N 34°15' W 119°16'0 0.0
2018-Jul-14 07:30N 34°15' W 119°16'0 0.0
2018-Jul-14 06:57N 34°15' W 119°16'0 0.0
2018-Jul-14 06:24N 34°15' W 119°16'0 0.0
2018-Jul-14 05:59N 34°15' W 119°16'0 0.0
2018-Jul-14 05:29N 34°15' W 119°16'0 0.0
2018-Jul-14 04:59N 34°15' W 119°16'0 0.0
2018-Jul-14 04:28N 34°15' W 119°16'0 0.0
2018-Jul-14 03:58N 34°15' W 119°16'0 0.0
2018-Jul-14 03:29N 34°15' W 119°16'0 0.0
2018-Jul-14 03:00N 34°15' W 119°16'0 0.0
2018-Jul-14 02:30N 34°15' W 119°16'0 0.0
2018-Jul-14 02:00N 34°15' W 119°16'0 0.0
2018-Jul-14 01:30N 34°15' W 119°16'0 0.0
2018-Jul-14 01:00N 34°15' W 119°16'0 0.0
2018-Jul-14 00:30N 34°15' W 119°16'612.6
2018-Jul-14 00:00N 34°13' W 119°23'1019.2
2018-Jul-13 23:30N 34°08' W 119°33'714.5
2018-Jul-13 22:59N 34°03' W 119°40'3 6.5
2018-Jul-13 22:29N 34°03' W 119°44'713.8
2018-Jul-13 22:01N 34°04' W 119°52'917.9
2018-Jul-13 21:31N 34°02' W 120°02'2 3.3
2018-Jul-13 21:00N 34°00' W 120°03'0 0.7
2018-Jul-13 20:30N 34°01' W 120°03'0 0.3
2018-Jul-13 20:00N 34°01' W 120°03'0 0.0
2018-Jul-13 19:30N 34°01' W 120°03'0 0.0
2018-Jul-13 19:01N 34°01' W 120°03'0 0.0
2018-Jul-13 18:29N 34°01' W 120°03'0 1.0
2018-Jul-13 18:00N 34°00' W 120°03'3 6.4
2018-Jul-13 17:28N 33°59' W 119°59'1019.1
2018-Jul-13 16:58N 33°57' W 119°48'1019.8
2018-Jul-13 16:28N 33°59' W 119°36'817.8
2018-Jul-13 16:00N 34°04' W 119°29'918.8
2018-Jul-13 15:30N 34°11' W 119°21'511.0
2018-Jul-13 15:00N 34°15' W 119°16'0 0.0
2018-Jul-13 14:30N 34°15' W 119°16'0 0.0
2018-Jul-13 13:30N 34°15' W 119°16'0 0.0
2018-Jul-13 12:59N 34°15' W 119°16'0 0.0
2018-Jul-13 12:28N 34°15' W 119°16'0 0.0
2018-Jul-13 12:00N 34°15' W 119°16'  
Track history (hours):
 
Tides and Currents Weather Stations Pressure Air Temp Water Temp Dewpoint Dewpoint Depression Visibility Wind Speed Wind Dir Waves Ship Positions

Island Explorer

Owner: Island Packers, Inc., Ventura, CA. More information available from US FCC via Universal Licensing System and Coast Guard Vessel Documentation Center.

Last reported at 2018-Jul-23 11:30 UTC. Time now 2018-Jul-23 11:55 UTC.
Position N 34°15' W 119°16'.

Length 22 m.

Type: Passenger vessel. MMSI: 367565750.

Date/timePositionNaut miles runAvg speedWind from/ knotsBaromVisibWave heightAir tempDewpointWater temp
2018-Jul-23 11:30N 34°15' W 119°16'0 0.0
2018-Jul-23 10:58N 34°15' W 119°16'0 0.0
2018-Jul-23 10:30N 34°15' W 119°16'0 0.0
2018-Jul-23 10:00N 34°15' W 119°16'0 0.0
2018-Jul-23 09:30N 34°15' W 119°16'0 0.0
2018-Jul-23 09:00N 34°15' W 119°16'0 0.0
2018-Jul-23 08:30N 34°15' W 119°16'0 0.0
2018-Jul-23 08:00N 34°15' W 119°16'0 0.0
2018-Jul-23 07:30N 34°15' W 119°16'0 0.0
2018-Jul-23 07:01N 34°15' W 119°16'0 0.0
2018-Jul-23 06:30N 34°15' W 119°16'0 0.0
2018-Jul-23 06:00N 34°15' W 119°16'0 0.0
2018-Jul-23 05:30N 34°15' W 119°16'0 0.0
2018-Jul-23 05:00N 34°15' W 119°16'0 0.0
2018-Jul-23 04:31N 34°15' W 119°16'0 0.0
2018-Jul-23 03:57N 34°15' W 119°16'0 0.0
2018-Jul-23 03:31N 34°15' W 119°16'0 0.0
2018-Jul-23 03:00N 34°15' W 119°16'0 0.0
2018-Jul-23 02:31N 34°15' W 119°16'0 0.0
2018-Jul-23 02:00N 34°15' W 119°16'0 0.0
2018-Jul-23 01:30N 34°15' W 119°16'0 0.0
2018-Jul-23 01:01N 34°15' W 119°16'4 8.0
2018-Jul-23 00:30N 34°12' W 119°20'816.0
2018-Jul-23 00:00N 34°07' W 119°27'712.9
2018-Jul-22 23:30N 34°03' W 119°33'0 0.2
2018-Jul-22 23:00N 34°03' W 119°33'611.9
2018-Jul-22 22:31N 34°02' W 119°40'1 2.2
2018-Jul-22 22:00N 34°01' W 119°41'0 0.0
2018-Jul-22 21:30N 34°01' W 119°41'0 0.1
2018-Jul-22 21:00N 34°01' W 119°41'0 0.0
2018-Jul-22 20:28N 34°01' W 119°41'0 0.1
2018-Jul-22 20:00N 34°01' W 119°41'0 0.0
2018-Jul-22 19:28N 34°01' W 119°41'0 0.1
2018-Jul-22 19:00N 34°01' W 119°41'0 0.1
2018-Jul-22 18:30N 34°01' W 119°41'4 8.1
2018-Jul-22 18:00N 34°03' W 119°37'3 5.4
2018-Jul-22 17:29N 34°03' W 119°33'713.6
2018-Jul-22 17:00N 34°07' W 119°27'916.7
2018-Jul-22 16:29N 34°13' W 119°19'3 6.5
2018-Jul-22 15:59N 34°15' W 119°16'0 0.0
2018-Jul-22 14:57N 34°15' W 119°16'0 0.0
2018-Jul-22 14:26N 34°15' W 119°16'0 0.0
2018-Jul-22 13:49N 34°15' W 119°16'0 0.0
2018-Jul-22 13:29N 34°15' W 119°16'0 0.0
2018-Jul-22 13:00N 34°15' W 119°16'0 0.0
2018-Jul-22 12:28N 34°15' W 119°16'0 0.0
2018-Jul-22 11:56N 34°15' W 119°16'0 0.0
2018-Jul-22 11:29N 34°15' W 119°16'0 0.0
2018-Jul-22 11:00N 34°15' W 119°16'0 0.0
2018-Jul-22 10:30N 34°15' W 119°16'0 0.0
2018-Jul-22 09:59N 34°15' W 119°16'0 0.0
2018-Jul-22 09:30N 34°15' W 119°16'0 0.0
2018-Jul-22 08:42N 34°15' W 119°16'0 0.0
2018-Jul-22 08:26N 34°15' W 119°16'0 0.0
2018-Jul-22 07:58N 34°15' W 119°16'0 0.0
2018-Jul-22 07:30N 34°15' W 119°16'0 0.0
2018-Jul-22 06:59N 34°15' W 119°16'0 0.0
2018-Jul-22 06:30N 34°15' W 119°16'0 0.0
2018-Jul-22 05:59N 34°15' W 119°16'0 0.0
2018-Jul-22 05:30N 34°15' W 119°16'0 0.0
2018-Jul-22 05:00N 34°15' W 119°16'0 0.0
2018-Jul-22 04:30N 34°15' W 119°16'0 0.0
2018-Jul-22 04:00N 34°15' W 119°16'0 0.7
2018-Jul-22 03:30N 34°15' W 119°16'0 0.2
2018-Jul-22 03:00N 34°15' W 119°16'1 1.2
2018-Jul-22 02:29N 34°15' W 119°16'0 0.1
2018-Jul-22 02:01N 34°15' W 119°16'0 0.4
2018-Jul-22 01:30N 34°15' W 119°16'0 0.0
2018-Jul-22 01:00N 34°15' W 119°16'0 0.0
2018-Jul-22 00:30N 34°15' W 119°16'0 0.0
2018-Jul-22 00:00N 34°15' W 119°16'0 0.0
2018-Jul-21 23:29N 34°15' W 119°16'0 0.0
2018-Jul-21 22:59N 34°15' W 119°16'510.8
2018-Jul-21 22:30N 34°11' W 119°20'713.0
2018-Jul-21 22:00N 34°04' W 119°19'4 8.6
2018-Jul-21 21:30N 34°01' W 119°22'611.3
2018-Jul-21 21:00N 33°57' W 119°28'3 6.2
2018-Jul-21 20:30N 33°59' W 119°30'815.2
2018-Jul-21 20:00N 34°06' W 119°35'0 0.9
2018-Jul-21 19:30N 34°06' W 119°35'1 2.2
2018-Jul-21 19:00N 34°05' W 119°34'4 8.1
2018-Jul-21 18:30N 34°05' W 119°29'816.0
2018-Jul-21 17:59N 34°11' W 119°21'612.8
2018-Jul-21 17:30N 34°15' W 119°16'0 0.6
2018-Jul-21 17:00N 34°15' W 119°16'0 0.0
2018-Jul-21 16:30N 34°15' W 119°16'0 0.0
2018-Jul-21 15:58N 34°15' W 119°16'0 0.0
2018-Jul-21 15:30N 34°15' W 119°16'0 0.0
2018-Jul-21 15:01N 34°15' W 119°16'0 0.0
2018-Jul-21 14:30N 34°15' W 119°16'0 0.0
2018-Jul-21 14:00N 34°15' W 119°16'0 0.0
2018-Jul-21 13:30N 34°15' W 119°16'0 0.0
2018-Jul-21 12:58N 34°15' W 119°16'0 0.0
2018-Jul-21 12:28N 34°15' W 119°16'0 0.0
2018-Jul-21 11:58N 34°15' W 119°16'0 0.0
2018-Jul-21 11:30N 34°15' W 119°16'0 0.0
2018-Jul-21 11:00N 34°15' W 119°16'0 0.0
2018-Jul-21 10:28N 34°15' W 119°16'0 0.0
2018-Jul-21 09:57N 34°15' W 119°16'0 0.0
2018-Jul-21 09:30N 34°15' W 119°16'0 0.0
2018-Jul-21 09:00N 34°15' W 119°16'0 0.0
2018-Jul-21 08:29N 34°15' W 119°16'0 0.0
2018-Jul-21 07:58N 34°15' W 119°16'0 0.0
2018-Jul-21 07:31N 34°15' W 119°16'0 0.0
2018-Jul-21 07:00N 34°15' W 119°16'0 0.0
2018-Jul-21 06:30N 34°15' W 119°16'0 0.0
2018-Jul-21 05:55N 34°15' W 119°16'0 0.0
2018-Jul-21 05:27N 34°15' W 119°16'0 0.0
2018-Jul-21 05:00N 34°15' W 119°16'0 0.0
2018-Jul-21 04:27N 34°15' W 119°16'0 0.0
2018-Jul-21 04:00N 34°15' W 119°16'0 0.0
2018-Jul-21 03:22N 34°15' W 119°16'0 0.0
2018-Jul-21 03:01N 34°15' W 119°16'0 0.0
2018-Jul-21 02:29N 34°15' W 119°16'0 0.0
2018-Jul-21 01:58N 34°15' W 119°16'0 0.0
2018-Jul-21 01:27N 34°15' W 119°16'0 0.3
2018-Jul-21 01:00N 34°15' W 119°16'815.1
2018-Jul-21 00:30N 34°10' W 119°23'714.2
2018-Jul-21 00:00N 34°06' W 119°30'4 8.0
2018-Jul-20 23:30N 34°03' W 119°33'0 0.0
2018-Jul-20 23:00N 34°03' W 119°33'0 0.2
2018-Jul-20 22:30N 34°03' W 119°33'0 0.1
2018-Jul-20 22:00N 34°03' W 119°33'4 8.4
2018-Jul-20 21:30N 34°02' W 119°38'2 5.0
2018-Jul-20 21:00N 34°01' W 119°41'0 0.0
2018-Jul-20 20:30N 34°01' W 119°41'0 0.1
2018-Jul-20 20:00N 34°01' W 119°41'0 0.0
2018-Jul-20 19:30N 34°01' W 119°41'0 0.1
2018-Jul-20 19:00N 34°01' W 119°41'0 0.2
2018-Jul-20 18:28N 34°01' W 119°41'613.2
2018-Jul-20 18:00N 34°03' W 119°34'1 1.5
2018-Jul-20 17:30N 34°03' W 119°33'610.7
2018-Jul-20 16:59N 34°07' W 119°28'917.8
2018-Jul-20 16:30N 34°12' W 119°20'4 7.3
2018-Jul-20 15:56N 34°15' W 119°16'0 0.0
2018-Jul-20 15:28N 34°15' W 119°16'0 0.1
2018-Jul-20 15:01N 34°15' W 119°16'0 0.0
2018-Jul-20 14:31N 34°15' W 119°16'0 0.0
2018-Jul-20 14:00N 34°15' W 119°16'0 0.0
2018-Jul-20 13:28N 34°15' W 119°16'0 0.0
2018-Jul-20 12:57N 34°15' W 119°16'0 0.0
2018-Jul-20 12:29N 34°15' W 119°16'0 0.0
2018-Jul-20 12:00N 34°15' W 119°16'0 0.0
2018-Jul-20 11:29N 34°15' W 119°16'0 0.0
2018-Jul-20 10:59N 34°15' W 119°16'0 0.0
2018-Jul-20 10:27N 34°15' W 119°16'0 0.0
2018-Jul-20 09:59N 34°15' W 119°16'0 0.0
2018-Jul-20 09:31N 34°15' W 119°16'0 0.0
2018-Jul-20 09:01N 34°15' W 119°16'0 0.0
2018-Jul-20 08:29N 34°15' W 119°16'0 0.0
2018-Jul-20 07:55N 34°15' W 119°16'0 0.0
2018-Jul-20 07:29N 34°15' W 119°16'0 0.0
2018-Jul-20 07:00N 34°15' W 119°16'0 0.0
2018-Jul-20 06:30N 34°15' W 119°16'0 0.0
2018-Jul-20 06:00N 34°15' W 119°16'0 0.0
2018-Jul-20 05:29N 34°15' W 119°16'0 0.0
2018-Jul-20 04:57N 34°15' W 119°16'0 0.0
2018-Jul-20 04:29N 34°15' W 119°16'0 0.0
2018-Jul-20 03:57N 34°15' W 119°16'0 0.0
2018-Jul-20 03:30N 34°15' W 119°16'0 0.0
2018-Jul-20 03:00N 34°15' W 119°16'0 0.0
2018-Jul-20 02:31N 34°15' W 119°16'0 0.0
2018-Jul-20 01:58N 34°15' W 119°16'0 0.0
2018-Jul-20 01:28N 34°15' W 119°16'0 0.0
2018-Jul-20 00:52N 34°15' W 119°16'0 0.0
2018-Jul-20 00:28N 34°15' W 119°16'0 0.4
2018-Jul-20 00:00N 34°14' W 119°16'1 1.0
2018-Jul-19 23:30N 34°15' W 119°16'918.9
2018-Jul-19 23:00N 34°15' W 119°28'5 9.3
2018-Jul-19 22:31N 34°15' W 119°33'510.0
2018-Jul-19 22:00N 34°14' W 119°39'815.6
2018-Jul-19 21:30N 34°09' W 119°46'613.0
2018-Jul-19 21:01N 34°04' W 119°52'712.9
2018-Jul-19 20:30N 34°06' W 119°44'511.0
2018-Jul-19 20:00N 34°05' W 119°37'713.3
2018-Jul-19 19:31N 34°07' W 119°30'2 3.3
2018-Jul-19 19:00N 34°06' W 119°31'1 1.3
2018-Jul-19 18:31N 34°06' W 119°32'16 5.6
2018-Jul-19 15:41N 34°15' W 119°16'0 0.0
2018-Jul-19 15:29N 34°15' W 119°16'0 0.0
2018-Jul-19 15:00N 34°15' W 119°16'0 0.0
2018-Jul-19 14:30N 34°15' W 119°16'0 0.0
2018-Jul-19 13:30N 34°15' W 119°16'0 0.0
2018-Jul-19 13:00N 34°15' W 119°16'0 0.0
2018-Jul-19 12:29N 34°15' W 119°16'0 0.0
2018-Jul-19 11:58N 34°15' W 119°16'0 0.0
2018-Jul-19 11:27N 34°15' W 119°16'0 0.0
2018-Jul-19 10:58N 34°15' W 119°16'0 0.0
2018-Jul-19 10:22N 34°15' W 119°16'0 0.0
2018-Jul-19 10:00N 34°15' W 119°16'0 0.0
2018-Jul-19 09:30N 34°15' W 119°16'0 0.0
2018-Jul-19 08:45N 34°15' W 119°16'0 0.0
2018-Jul-19 08:28N 34°15' W 119°16'0 0.0
2018-Jul-19 08:00N 34°15' W 119°16'0 0.0
2018-Jul-19 07:30N 34°15' W 119°16'0 0.0
2018-Jul-19 07:00N 34°15' W 119°16'0 0.0
2018-Jul-19 06:28N 34°15' W 119°16'0 0.0
2018-Jul-19 06:00N 34°15' W 119°16'0 0.0
2018-Jul-19 05:30N 34°15' W 119°16'0 0.0
2018-Jul-19 05:00N 34°15' W 119°16'0 0.0
2018-Jul-19 04:22N 34°15' W 119°16'0 0.0
2018-Jul-19 04:00N 34°15' W 119°16'0 0.0
2018-Jul-19 03:28N 34°15' W 119°16'0 0.0
2018-Jul-19 02:54N 34°15' W 119°16'0 0.0
2018-Jul-19 02:26N 34°15' W 119°16'0 0.0
2018-Jul-19 01:58N 34°15' W 119°16'0 0.0
2018-Jul-19 01:27N 34°15' W 119°16'4 9.7
2018-Jul-19 01:00N 34°12' W 119°20'1020.2
2018-Jul-19 00:29N 34°07' W 119°30'4 8.6
2018-Jul-19 00:00N 34°03' W 119°33'0 0.1
2018-Jul-18 23:30N 34°03' W 119°33'612.1
2018-Jul-18 23:00N 34°02' W 119°40'1 1.8
2018-Jul-18 22:31N 34°01' W 119°41'0 0.0
2018-Jul-18 22:01N 34°01' W 119°41'0 0.0
2018-Jul-18 21:30N 34°01' W 119°41'0 0.0
2018-Jul-18 21:00N 34°01' W 119°41'0 0.0
2018-Jul-18 20:30N 34°01' W 119°41'0 0.0
2018-Jul-18 20:00N 34°01' W 119°41'2 3.2
2018-Jul-18 19:30N 34°03' W 119°42'2 3.9
2018-Jul-18 19:00N 34°02' W 119°40'611.5
2018-Jul-18 18:30N 34°03' W 119°33'510.7
2018-Jul-18 18:00N 34°07' W 119°29'918.0
2018-Jul-18 17:30N 34°12' W 119°21'4 8.8
2018-Jul-18 17:00N 34°15' W 119°16'0 0.0
2018-Jul-18 16:30N 34°15' W 119°16'0 0.0
2018-Jul-18 15:59N 34°15' W 119°16'0 0.0
2018-Jul-18 15:31N 34°15' W 119°16'0 0.0
2018-Jul-18 14:58N 34°15' W 119°16'0 0.0
2018-Jul-18 14:31N 34°15' W 119°16'0 0.0
2018-Jul-18 13:30N 34°15' W 119°16'0 0.0
2018-Jul-18 13:00N 34°15' W 119°16'0 0.0
2018-Jul-18 12:30N 34°15' W 119°16'0 0.0
2018-Jul-18 12:00N 34°15' W 119°16'0 0.0
2018-Jul-18 11:30N 34°15' W 119°16'0 0.0
2018-Jul-18 10:30N 34°15' W 119°16'0 0.0
2018-Jul-18 09:59N 34°15' W 119°16'0 0.0
2018-Jul-18 09:30N 34°15' W 119°16'0 0.0
2018-Jul-18 09:01N 34°15' W 119°16'0 0.0
2018-Jul-18 08:30N 34°15' W 119°16'0 0.0
2018-Jul-18 08:00N 34°15' W 119°16'0 0.0
2018-Jul-18 07:28N 34°15' W 119°16'0 0.0
2018-Jul-18 06:59N 34°15' W 119°16'0 0.0
2018-Jul-18 06:29N 34°15' W 119°16'0 0.0
2018-Jul-18 06:00N 34°15' W 119°16'0 0.0
2018-Jul-18 05:30N 34°15' W 119°16'0 0.0
2018-Jul-18 05:00N 34°15' W 119°16'0 0.0
2018-Jul-18 04:30N 34°15' W 119°16'0 0.0
2018-Jul-18 04:00N 34°15' W 119°16'0 0.0
2018-Jul-18 03:30N 34°15' W 119°16'0 0.0
2018-Jul-18 03:01N 34°15' W 119°16'0 0.0
2018-Jul-18 02:30N 34°15' W 119°16'0 0.0
2018-Jul-18 01:59N 34°15' W 119°16'0 0.0
2018-Jul-18 01:30N 34°15' W 119°16'0 0.0
2018-Jul-18 01:00N 34°15' W 119°16'4 9.0
2018-Jul-18 00:30N 34°12' W 119°20'917.5
2018-Jul-18 00:00N 34°07' W 119°29'510.9
2018-Jul-17 23:30N 34°03' W 119°33'0 0.2
2018-Jul-17 23:00N 34°03' W 119°33'612.2
2018-Jul-17 22:31N 34°02' W 119°40'1 1.5
2018-Jul-17 22:01N 34°01' W 119°41'0 0.0
2018-Jul-17 21:31N 34°01' W 119°41'0 0.0
2018-Jul-17 21:00N 34°01' W 119°41'0 0.0
2018-Jul-17 20:30N 34°01' W 119°41'0 0.0
2018-Jul-17 20:00N 34°01' W 119°41'0 0.0
2018-Jul-17 19:30N 34°01' W 119°41'0 0.1
2018-Jul-17 19:00N 34°01' W 119°41'0 0.1
2018-Jul-17 18:30N 34°01' W 119°41'3 5.1
2018-Jul-17 18:00N 34°02' W 119°38'4 7.4
2018-Jul-17 17:27N 34°03' W 119°33'511.7
2018-Jul-17 17:00N 34°06' W 119°28'1018.6
2018-Jul-17 16:28N 34°13' W 119°19'3 7.3
2018-Jul-17 16:00N 34°15' W 119°16'0 0.0
2018-Jul-17 15:28N 34°15' W 119°16'0 0.5
2018-Jul-17 15:00N 34°14' W 119°16'0 0.4
2018-Jul-17 14:29N 34°15' W 119°16'0 0.0
2018-Jul-17 14:00N 34°15' W 119°16'0 0.0
2018-Jul-17 13:30N 34°15' W 119°16'0 0.0
2018-Jul-17 13:00N 34°15' W 119°16'0 0.0
2018-Jul-17 12:30N 34°15' W 119°16'0 0.0
2018-Jul-17 12:00N 34°15' W 119°16'0 0.0
2018-Jul-17 11:30N 34°15' W 119°16'0 0.0
2018-Jul-17 10:59N 34°15' W 119°16'0 0.0
2018-Jul-17 10:30N 34°15' W 119°16'0 0.0
2018-Jul-17 10:00N 34°15' W 119°16'0 0.0
2018-Jul-17 09:30N 34°15' W 119°16'0 0.0
2018-Jul-17 08:58N 34°15' W 119°16'0 0.0
2018-Jul-17 08:30N 34°15' W 119°16'0 0.0
2018-Jul-17 08:00N 34°15' W 119°16'0 0.0
2018-Jul-17 07:30N 34°15' W 119°16'0 0.0
2018-Jul-17 07:00N 34°15' W 119°16'0 0.0
2018-Jul-17 06:30N 34°15' W 119°16'0 0.0
2018-Jul-17 06:00N 34°15' W 119°16'0 0.0
2018-Jul-17 05:29N 34°15' W 119°16'0 0.0
2018-Jul-17 05:00N 34°15' W 119°16'0 0.0
2018-Jul-17 04:30N 34°15' W 119°16'0 0.0
2018-Jul-17 04:00N 34°15' W 119°16'0 0.0
2018-Jul-17 03:30N 34°15' W 119°16'0 0.0
2018-Jul-17 02:59N 34°15' W 119°16'0 0.0
2018-Jul-17 02:30N 34°15' W 119°16'0 0.0
2018-Jul-17 02:00N 34°15' W 119°16'0 0.0
2018-Jul-17 01:30N 34°15' W 119°16'0 0.2
2018-Jul-17 01:00N 34°15' W 119°16'815.0
2018-Jul-17 00:29N 34°10' W 119°24'1110.9
2018-Jul-16 23:30N 34°03' W 119°33'0 0.1
2018-Jul-16 23:00N 34°03' W 119°33'0 0.0
2018-Jul-16 22:31N 34°03' W 119°33'0 0.0
2018-Jul-16 22:00N 34°03' W 119°33'0 0.0
2018-Jul-16 21:30N 34°03' W 119°33'0 0.0
2018-Jul-16 21:00N 34°03' W 119°33'0 0.0
2018-Jul-16 20:30N 34°03' W 119°33'0 0.0
2018-Jul-16 19:59N 34°03' W 119°33'1 3.1
2018-Jul-16 19:30N 34°04' W 119°32'4 8.5
2018-Jul-16 19:00N 34°03' W 119°37'4 7.4
2018-Jul-16 18:30N 34°01' W 119°41'713.6
2018-Jul-16 18:00N 34°03' W 119°33'2 3.3
2018-Jul-16 17:29N 34°04' W 119°32'714.6
2018-Jul-16 17:00N 34°08' W 119°25'917.3
2018-Jul-16 16:30N 34°14' W 119°17'1 2.2
2018-Jul-16 16:00N 34°15' W 119°16'0 0.0
2018-Jul-16 15:29N 34°15' W 119°16'0 0.0
2018-Jul-16 15:00N 34°15' W 119°16'0 0.0
2018-Jul-16 14:30N 34°15' W 119°16'0 0.0
2018-Jul-16 14:00N 34°15' W 119°16'0 0.0
2018-Jul-16 13:30N 34°15' W 119°16'0 0.0
2018-Jul-16 13:00N 34°15' W 119°16'0 0.0
2018-Jul-16 12:30N 34°15' W 119°16'0 0.0
2018-Jul-16 12:00N 34°15' W 119°16'0 0.0
2018-Jul-16 11:30N 34°15' W 119°16'0 0.0
2018-Jul-16 11:00N 34°15' W 119°16'0 0.0
2018-Jul-16 10:28N 34°15' W 119°16'0 0.0
2018-Jul-16 10:00N 34°15' W 119°16'0 0.0
2018-Jul-16 09:29N 34°15' W 119°16'0 0.0
2018-Jul-16 08:59N 34°15' W 119°16'0 0.0
2018-Jul-16 08:31N 34°15' W 119°16'0 0.0
2018-Jul-16 08:00N 34°15' W 119°16'0 0.0
2018-Jul-16 07:30N 34°15' W 119°16'0 0.0
2018-Jul-16 07:00N 34°15' W 119°16'0 0.0
2018-Jul-16 06:29N 34°15' W 119°16'0 0.0
2018-Jul-16 06:00N 34°15' W 119°16'0 0.0
2018-Jul-16 05:29N 34°15' W 119°16'0 0.0
2018-Jul-16 04:57N 34°15' W 119°16'0 0.0
2018-Jul-16 04:27N 34°15' W 119°16'0 0.0
2018-Jul-16 04:00N 34°15' W 119°16'0 0.0
2018-Jul-16 03:30N 34°15' W 119°16'0 0.0
2018-Jul-16 03:00N 34°15' W 119°16'0 0.0
2018-Jul-16 02:30N 34°15' W 119°16'0 0.0
2018-Jul-16 01:59N 34°15' W 119°16'0 0.0
2018-Jul-16 01:30N 34°15' W 119°16'0 0.0
2018-Jul-16 01:00N 34°15' W 119°16'611.3
2018-Jul-16 00:31N 34°12' W 119°21'1017.7
2018-Jul-15 23:58N 34°05' W 119°30'3 7.4
2018-Jul-15 23:30N 34°03' W 119°33'1 1.2
2018-Jul-15 23:00N 34°03' W 119°33'611.6
2018-Jul-15 22:30N 34°02' W 119°39'2 3.5
2018-Jul-15 22:00N 34°01' W 119°41'0 0.0
2018-Jul-15 21:30N 34°01' W 119°41'0 0.1
2018-Jul-15 21:00N 34°01' W 119°41'0 0.0
2018-Jul-15 20:30N 34°01' W 119°41'0 0.8
2018-Jul-15 20:00N 34°02' W 119°41'1 2.3
2018-Jul-15 19:30N 34°02' W 119°40'4 6.9
2018-Jul-15 19:00N 34°03' W 119°36'4 8.1
2018-Jul-15 18:30N 34°02' W 119°40'611.5
2018-Jul-15 17:59N 34°03' W 119°33'5 9.6
2018-Jul-15 17:30N 34°06' W 119°29'3 5.2
2018-Jul-15 17:00N 34°07' W 119°26'713.3
2018-Jul-15 16:30N 34°12' W 119°21'510.0
2018-Jul-15 16:00N 34°15' W 119°16'0 0.0
2018-Jul-15 15:30N 34°15' W 119°16'0 0.0
2018-Jul-15 15:01N 34°15' W 119°16'0 0.0
2018-Jul-15 14:30N 34°15' W 119°16'0 0.0
2018-Jul-15 14:00N 34°15' W 119°16'0 0.0
2018-Jul-15 13:31N 34°15' W 119°16'0 0.0
2018-Jul-15 13:00N 34°15' W 119°16'0 0.0
2018-Jul-15 12:30N 34°15' W 119°16'0 0.0
2018-Jul-15 11:55N 34°15' W 119°16'0 0.0
2018-Jul-15 11:30N 34°15' W 119°16'0 0.0
2018-Jul-15 11:01N 34°15' W 119°16'0 0.0
2018-Jul-15 10:28N 34°15' W 119°16'0 0.0
2018-Jul-15 10:00N 34°15' W 119°16'0 0.0
2018-Jul-15 09:30N 34°15' W 119°16'0 0.0
2018-Jul-15 08:59N 34°15' W 119°16'0 0.0
2018-Jul-15 08:31N 34°15' W 119°16'0 0.0
2018-Jul-15 08:01N 34°15' W 119°16'0 0.0
2018-Jul-15 07:30N 34°15' W 119°16'0 0.0
2018-Jul-15 06:59N 34°15' W 119°16'0 0.0
2018-Jul-15 06:28N 34°15' W 119°16'0 0.0
2018-Jul-15 06:00N 34°15' W 119°16'0 0.0
2018-Jul-15 05:30N 34°15' W 119°16'0 0.0
2018-Jul-15 05:00N 34°15' W 119°16'0 0.0
2018-Jul-15 04:30N 34°15' W 119°16'0 0.8
2018-Jul-15 03:59N 34°15' W 119°16'0 0.8
2018-Jul-15 03:30N 34°15' W 119°16'1 1.7
2018-Jul-15 03:00N 34°16' W 119°16'1 1.2
2018-Jul-15 02:30N 34°15' W 119°16'0 0.8
2018-Jul-15 02:01N 34°15' W 119°16'0 0.0
2018-Jul-15 01:31N 34°15' W 119°16'0 0.0
2018-Jul-15 01:00N 34°15' W 119°16'0 0.1
2018-Jul-15 00:29N 34°15' W 119°16'3 5.6
2018-Jul-15 00:00N 34°13' W 119°19'816.7
2018-Jul-14 23:30N 34°08' W 119°26'810.3
2018-Jul-14 22:46N 34°03' W 119°33'0 0.0
2018-Jul-14 22:21N 34°03' W 119°33'0 0.1
2018-Jul-14 22:01N 34°03' W 119°33'0 0.0
2018-Jul-14 21:30N 34°03' W 119°33'0 0.0
2018-Jul-14 21:00N 34°03' W 119°33'0 0.0
2018-Jul-14 20:30N 34°03' W 119°33'4 8.5
2018-Jul-14 20:00N 34°05' W 119°29'918.4
2018-Jul-14 19:30N 34°11' W 119°21'510.3
2018-Jul-14 19:00N 34°15' W 119°16'0 0.4
2018-Jul-14 18:30N 34°14' W 119°16'2 4.7
2018-Jul-14 18:00N 34°14' W 119°18'1020.5
2018-Jul-14 17:30N 34°08' W 119°28'612.0
2018-Jul-14 17:00N 34°03' W 119°33'0 0.0
2018-Jul-14 16:29N 34°03' W 119°33'714.9
2018-Jul-14 16:00N 34°07' W 119°26'917.7
2018-Jul-14 15:30N 34°13' W 119°18'3 5.3
2018-Jul-14 15:00N 34°15' W 119°16'0 0.0
2018-Jul-14 14:00N 34°15' W 119°16'0 0.0
2018-Jul-14 13:27N 34°15' W 119°16'0 0.0
2018-Jul-14 12:56N 34°15' W 119°16'0 0.0
2018-Jul-14 12:30N 34°15' W 119°16'0 0.0
2018-Jul-14 11:59N 34°15' W 119°16'0 0.0
2018-Jul-14 11:30N 34°15' W 119°16'0 0.0
2018-Jul-14 11:00N 34°15' W 119°16'0 0.0
2018-Jul-14 10:23N 34°15' W 119°16'0 0.0
2018-Jul-14 10:01N 34°15' W 119°16'0 0.0
2018-Jul-14 09:30N 34°15' W 119°16'0 0.0
2018-Jul-14 08:58N 34°15' W 119°16'0 0.0
2018-Jul-14 08:29N 34°15' W 119°16'0 0.0
2018-Jul-14 07:59N 34°15' W 119°16'0 0.0
2018-Jul-14 07:30N 34°15' W 119°16'0 0.0
2018-Jul-14 06:57N 34°15' W 119°16'0 0.0
2018-Jul-14 06:24N 34°15' W 119°16'0 0.0
2018-Jul-14 05:59N 34°15' W 119°16'0 0.0
2018-Jul-14 05:29N 34°15' W 119°16'0 0.0
2018-Jul-14 04:59N 34°15' W 119°16'0 0.0
2018-Jul-14 04:28N 34°15' W 119°16'0 0.0
2018-Jul-14 03:58N 34°15' W 119°16'0 0.0
2018-Jul-14 03:29N 34°15' W 119°16'0 0.0
2018-Jul-14 03:00N 34°15' W 119°16'0 0.0
2018-Jul-14 02:30N 34°15' W 119°16'0 0.0
2018-Jul-14 02:00N 34°15' W 119°16'0 0.0
2018-Jul-14 01:30N 34°15' W 119°16'0 0.0
2018-Jul-14 01:00N 34°15' W 119°16'0 0.0
2018-Jul-14 00:30N 34°15' W 119°16'612.6
2018-Jul-14 00:00N 34°13' W 119°23'1019.2
2018-Jul-13 23:30N 34°08' W 119°33'714.5
2018-Jul-13 22:59N 34°03' W 119°40'3 6.5
2018-Jul-13 22:29N 34°03' W 119°44'713.8
2018-Jul-13 22:01N 34°04' W 119°52'917.9
2018-Jul-13 21:31N 34°02' W 120°02'2 3.3
2018-Jul-13 21:00N 34°00' W 120°03'0 0.7
2018-Jul-13 20:30N 34°01' W 120°03'0 0.3
2018-Jul-13 20:00N 34°01' W 120°03'0 0.0
2018-Jul-13 19:30N 34°01' W 120°03'0 0.0
2018-Jul-13 19:01N 34°01' W 120°03'0 0.0
2018-Jul-13 18:29N 34°01' W 120°03'0 1.0
2018-Jul-13 18:00N 34°00' W 120°03'3 6.4
2018-Jul-13 17:28N 33°59' W 119°59'1019.1
2018-Jul-13 16:58N 33°57' W 119°48'1019.8
2018-Jul-13 16:28N 33°59' W 119°36'817.8
2018-Jul-13 16:00N 34°04' W 119°29'918.8
2018-Jul-13 15:30N 34°11' W 119°21'511.0
2018-Jul-13 15:00N 34°15' W 119°16'0 0.0
2018-Jul-13 14:30N 34°15' W 119°16'0 0.0
2018-Jul-13 13:30N 34°15' W 119°16'0 0.0
2018-Jul-13 12:59N 34°15' W 119°16'0 0.0
2018-Jul-13 12:28N 34°15' W 119°16'0 0.0
2018-Jul-13 12:00N 34°15' W 119°16'  

Dump ship's entire track history